Aérodrome :
LOGIN :

S'inscrire | Disclaimer

   EN    FR    IT 

 










Légende :    VFR   VFR Marginal   IFR   IFR Intensif   IFR Très Intensif
Visi : 
Plafond : 
>= 8 km
>= 3000ft
5 à 8 km
1000 à 3000 ft
1500m à 5 km
500 à 1000 ft
800 à 1500m
200 à 500 ft
< 800m
< 200 ft
Symboles :   Orages  Brouillard  Fortes neiges  Fortes précipitations  Vent > 20 kt
SIGMETs :   Divers  Orages  Givrage  Turbulence  Onde Orograph.  Cendres Volcan.







- Altitude de l'aérodrome : 97 ft
- Code IATA : EBJ


EKEB - Esbjerg

DERNIER METAR :
  • 141450Z AUTO 29011KT 9999NDV BKN026/// BKN046/// 20/15 Q1009

METARs EXPIRÉS :
  • 141420Z AUTO 30010KT 9999NDV SCT025/// 21/16 Q1009
  • 141350Z AUTO 31012KT 9999NDV SCT024/// 21/16 Q1009
  • 141320Z AUTO 31011KT 9999NDV BKN020/// 19/16 Q1009
  • 141250Z AUTO 32010KT 9999NDV BKN022/// 20/16 Q1009
  • 141220Z AUTO 31009KT 9999NDV BKN029/// 20/16 Q1008

TAF TAF EKEB
Valide du 14 à 15h jusqu'au 14 à 22h UTC


141418Z 1415/1422 31010KT 9999 BKN020
Pas de NOTAMs connus pour ce terrain.



MET'MAP, la Météo Aéronautique d'un coup d'oeil ! - Copyright ORBIFLY Décembre 2007 - Disclaimer

ORBIFLY MET'MAP TEAM :

Programmation & Développement : Alexandra Zaïnal
Conception & Développement : Baudouin d'Aumeries
Co-Programmation & Développement : Marc-Olivier Méhu
Soutien technique & logistique : Manuel Goepfert

Contact : metmap@orbifly.com




SOURCES & CREDITS :

   NOAA